Time;durP1;ratioP1;P1;durP2;ratioP2;P2;SDS_P1;SDS_P2;PMS_P1;PMS_P2;Temp;Humidity;BMP_temperature;BMP_pressure;BME280_temperature;BME280_humidity;BME280_pressure;Samples;Min_cycle;Max_cycle;Signal;HPM_P1;HPM_P2
2022/06/06 00:01:12;;;;;;;5.78;4.90;;;;;;;;;;5013866;28;20038;-71
2022/06/06 00:03:38;;;;;;;6.43;4.63;;;;;;;;;;5014710;28;20066;-70
2022/06/06 00:06:07;;;;;;;5.47;4.95;;;;;;;;;;5013321;28;20049;-70
2022/06/06 00:08:33;;;;;;;7.80;5.45;;;;;;;;;;4995309;28;20191;-69
2022/06/06 00:10:59;;;;;;;7.82;5.28;;;;;;;;;;5012977;28;20518;-69
2022/06/06 00:13:24;;;;;;;13.93;5.28;;;;;;;;;;5010506;28;20399;-69
2022/06/06 00:15:51;;;;;;;10.35;5.53;;;;;;;;;;5029499;28;20053;-70
2022/06/06 00:18:17;;;;;;;5.63;4.95;;;;;;;;;;5014305;28;20468;-69
2022/06/06 00:20:42;;;;;;;7.38;5.15;;;;;;;;;;5031849;28;20037;-70
2022/06/06 00:23:08;;;;;;;5.85;5.20;;;;;;;;;;5032259;28;20441;-69
2022/06/06 00:25:35;;;;;;;5.60;5.10;;;;;;;;;;5032160;28;20052;-69
2022/06/06 00:28:00;;;;;;;8.35;4.80;;;;;;;;;;5032286;28;20045;-68
2022/06/06 00:30:26;;;;;;;6.57;4.70;;;;;;;;;;5031851;28;20037;-69
2022/06/06 00:35:37;;;;;;;8.23;4.65;;;;;;;;;;5014254;28;20404;-69
2022/06/06 00:38:04;;;;;;;10.07;5.00;;;;;;;;;;5031989;28;20194;-70
2022/06/06 00:40:30;;;;;;;5.20;4.70;;;;;;;;;;5031683;28;20049;-70
2022/06/06 00:42:56;;;;;;;8.48;5.00;;;;;;;;;;5032236;28;20129;-69
2022/06/06 00:45:28;;;;;;;7.93;5.05;;;;;;;;;;5031518;28;20654;-69
2022/06/06 00:48:12;;;;;;;10.43;4.80;;;;;;;;;;5031940;28;20045;-68
2022/06/06 00:50:55;;;;;;;7.90;4.95;;;;;;;;;;5031860;28;20045;-70
2022/06/06 00:53:41;;;;;;;6.32;5.10;;;;;;;;;;5031573;28;20048;-69
2022/06/06 00:56:11;;;;;;;6.72;4.90;;;;;;;;;;5031615;28;20046;-69
2022/06/06 00:58:40;;;;;;;5.05;4.65;;;;;;;;;;5031638;28;20045;-69
2022/06/06 01:01:06;;;;;;;6.20;5.07;;;;;;;;;;5031792;28;20045;-67
2022/06/06 01:03:32;;;;;;;11.30;5.10;;;;;;;;;;5031293;28;20042;-69
2022/06/06 01:05:58;;;;;;;12.13;5.32;;;;;;;;;;5013980;28;20180;-70
2022/06/06 01:08:24;;;;;;;6.72;5.63;;;;;;;;;;4997207;28;20393;-69
2022/06/06 01:10:50;;;;;;;9.18;5.13;;;;;;;;;;5031373;28;20048;-70
2022/06/06 01:13:17;;;;;;;6.82;5.38;;;;;;;;;;5031228;28;20124;-70
2022/06/06 01:16:06;;;;;;;5.85;5.25;;;;;;;;;;5013669;28;20047;-68
2022/06/06 01:18:38;;;;;;;10.88;4.75;;;;;;;;;;5011591;28;20049;-69
2022/06/06 01:21:12;;;;;;;10.60;4.93;;;;;;;;;;5031228;28;20041;-70
2022/06/06 01:24:11;;;;;;;6.68;4.90;;;;;;;;;;5031290;28;20041;-69
2022/06/06 01:26:49;;;;;;;7.03;4.40;;;;;;;;;;5008023;28;20040;-70
2022/06/06 01:29:20;;;;;;;8.35;4.45;;;;;;;;;;5030699;28;20041;-70
2022/06/06 01:31:50;;;;;;;12.65;4.22;;;;;;;;;;4996157;28;20080;-70
2022/06/06 01:34:20;;;;;;;7.05;4.80;;;;;;;;;;4996584;28;20081;-69
2022/06/06 01:36:49;;;;;;;10.30;4.70;;;;;;;;;;5013497;28;20094;-70
2022/06/06 01:39:16;;;;;;;9.43;4.63;;;;;;;;;;5030642;28;20493;-68
2022/06/06 01:41:42;;;;;;;5.35;4.57;;;;;;;;;;5031170;28;20544;-70
2022/06/06 01:44:15;;;;;;;6.15;4.60;;;;;;;;;;5031242;28;20072;-70
2022/06/06 01:46:42;;;;;;;7.82;4.55;;;;;;;;;;5030878;28;20473;-69
2022/06/06 01:49:09;;;;;;;10.32;4.75;;;;;;;;;;5030690;28;20050;-69
2022/06/06 01:51:35;;;;;;;10.45;4.85;;;;;;;;;;5030477;28;20046;-70
2022/06/06 01:54:01;;;;;;;8.13;5.13;;;;;;;;;;5030455;28;20166;-70
2022/06/06 01:56:28;;;;;;;12.35;4.93;;;;;;;;;;5030359;28;20120;-69
2022/06/06 01:58:54;;;;;;;5.63;4.60;;;;;;;;;;5029180;28;20057;-70
2022/06/06 02:01:19;;;;;;;7.70;4.63;;;;;;;;;;5030319;28;20053;-71
2022/06/06 02:03:46;;;;;;;5.80;4.68;;;;;;;;;;5030159;28;20151;-70
2022/06/06 02:06:13;;;;;;;6.60;4.65;;;;;;;;;;5012581;28;20280;-70
2022/06/06 02:08:39;;;;;;;6.00;4.80;;;;;;;;;;5030189;28;20492;-70
2022/06/06 02:11:05;;;;;;;8.25;4.50;;;;;;;;;;5030230;28;20376;-69
2022/06/06 02:13:31;;;;;;;10.45;5.22;;;;;;;;;;5030063;28;20100;-69
2022/06/06 02:15:57;;;;;;;5.63;4.97;;;;;;;;;;5030147;28;20034;-70
2022/06/06 02:18:23;;;;;;;10.07;5.18;;;;;;;;;;5029928;28;20144;-70
2022/06/06 02:20:49;;;;;;;8.82;4.75;;;;;;;;;;5030107;28;20034;-70
2022/06/06 02:23:15;;;;;;;5.57;5.00;;;;;;;;;;5030200;28;20477;-70
2022/06/06 02:25:41;;;;;;;5.32;4.82;;;;;;;;;;5029962;28;20084;-69
2022/06/06 02:28:07;;;;;;;7.30;5.82;;;;;;;;;;5030098;28;20045;-70
2022/06/06 02:30:34;;;;;;;7.07;4.55;;;;;;;;;;5012170;28;20125;-70
2022/06/06 02:33:00;;;;;;;11.07;4.95;;;;;;;;;;5030015;28;20056;-71
2022/06/06 02:35:27;;;;;;;10.48;5.60;;;;;;;;;;5029595;28;20446;-70
2022/06/06 02:37:56;;;;;;;8.60;6.38;;;;;;;;;;5028593;28;20114;-70
2022/06/06 02:40:22;;;;;;;9.88;5.03;;;;;;;;;;5029433;28;20116;-70
2022/06/06 02:42:48;;;;;;;8.40;5.82;;;;;;;;;;5029678;28;20049;-70
2022/06/06 02:45:18;;;;;;;8.48;5.40;;;;;;;;;;5028364;28;20087;-69
2022/06/06 02:47:47;;;;;;;8.38;5.07;;;;;;;;;;5029734;28;20045;-71
2022/06/06 02:50:14;;;;;;;5.28;4.93;;;;;;;;;;5011957;28;20064;-70
2022/06/06 02:52:40;;;;;;;9.63;4.65;;;;;;;;;;5029443;28;20049;-70
2022/06/06 02:55:08;;;;;;;7.55;4.30;;;;;;;;;;5029540;28;20131;-69
2022/06/06 02:57:37;;;;;;;4.72;4.32;;;;;;;;;;4995327;28;20215;-69
2022/06/06 03:00:04;;;;;;;7.22;4.55;;;;;;;;;;5029470;28;20033;-70
2022/06/06 03:02:32;;;;;;;6.47;4.47;;;;;;;;;;5028994;28;20543;-70
2022/06/06 03:04:58;;;;;;;5.63;4.25;;;;;;;;;;5011912;28;20041;-70
2022/06/06 03:07:27;;;;;;;6.97;4.50;;;;;;;;;;5011771;28;20393;-70
2022/06/06 03:10:23;;;;;;;5.60;4.00;;;;;;;;;;5011918;28;20452;-69
2022/06/06 03:12:49;;;;;;;4.47;4.03;;;;;;;;;;5020332;28;20081;-69
2022/06/06 03:15:15;;;;;;;4.20;3.90;;;;;;;;;;5029244;28;20131;-70
2022/06/06 03:23:16;;;;;;;3.65;3.35;;;;;;;;;;5029304;28;20037;-70
2022/06/06 03:26:01;;;;;;;5.38;3.72;;;;;;;;;;5029010;28;20579;-69
2022/06/06 03:28:37;;;;;;;4.05;3.65;;;;;;;;;;5011378;28;20049;-69
2022/06/06 03:31:15;;;;;;;3.97;3.35;;;;;;;;;;5029235;28;20119;-70
2022/06/06 03:33:44;;;;;;;3.90;3.50;;;;;;;;;;5029405;28;20049;-69
2022/06/06 03:36:30;;;;;;;3.90;3.60;;;;;;;;;;5029165;28;20042;-70
2022/06/06 03:39:05;;;;;;;5.53;3.92;;;;;;;;;;5011880;28;20054;-71
2022/06/06 03:41:34;;;;;;;7.88;3.83;;;;;;;;;;5011491;28;20052;-70
2022/06/06 03:44:00;;;;;;;8.77;4.00;;;;;;;;;;5029166;28;20046;-70
2022/06/06 03:46:29;;;;;;;6.85;3.90;;;;;;;;;;5028873;28;20132;-71
2022/06/06 03:49:01;;;;;;;3.72;3.42;;;;;;;;;;5029449;28;20043;-69
2022/06/06 03:51:59;;;;;;;4.13;3.80;;;;;;;;;;4994956;28;20479;-71
2022/06/06 03:54:51;;;;;;;4.00;3.70;;;;;;;;;;5028608;28;20141;-70
2022/06/06 03:57:18;;;;;;;6.50;3.35;;;;;;;;;;5016916;28;20046;-70
2022/06/06 03:59:46;;;;;;;14.38;3.67;;;;;;;;;;5032566;28;20038;-71
2022/06/06 04:02:17;;;;;;;4.43;3.47;;;;;;;;;;5014888;28;20132;-71
2022/06/06 04:04:43;;;;;;;6.18;3.80;;;;;;;;;;5014810;28;20517;-69
2022/06/06 04:07:08;;;;;;;3.75;3.45;;;;;;;;;;5014908;28;20045;-71
2022/06/06 04:09:34;;;;;;;4.57;3.70;;;;;;;;;;5031252;28;20037;-71
2022/06/06 04:12:14;;;;;;;8.65;3.97;;;;;;;;;;5032811;28;20514;-69
2022/06/06 04:15:07;;;;;;;5.75;4.50;;;;;;;;;;5032915;28;20140;-69
2022/06/06 04:17:38;;;;;;;6.72;3.90;;;;;;;;;;5030180;28;20053;-70
2022/06/06 04:20:20;;;;;;;6.43;3.88;;;;;;;;;;5015007;28;20061;-71
2022/06/06 04:22:50;;;;;;;8.88;3.80;;;;;;;;;;5014592;28;20063;-69
2022/06/06 04:25:27;;;;;;;6.20;3.88;;;;;;;;;;5014489;28;20068;-70
2022/06/06 04:28:13;;;;;;;4.82;3.58;;;;;;;;;;5032319;28;20048;-71
2022/06/06 04:30:45;;;;;;;6.30;4.10;;;;;;;;;;5031729;28;20053;-70
2022/06/06 04:33:19;;;;;;;6.10;3.90;;;;;;;;;;5032206;28;20044;-70
2022/06/06 04:35:45;;;;;;;12.55;3.75;;;;;;;;;;5014162;28;20049;-71
2022/06/06 04:38:13;;;;;;;7.20;4.03;;;;;;;;;;5031952;28;20394;-70
2022/06/06 04:40:41;;;;;;;3.78;3.35;;;;;;;;;;5031927;28;20041;-71
2022/06/06 04:43:26;;;;;;;4.10;3.80;;;;;;;;;;5014429;28;20124;-70
2022/06/06 04:45:54;;;;;;;6.82;3.28;;;;;;;;;;5031878;28;20049;-70
2022/06/06 04:48:20;;;;;;;8.02;3.75;;;;;;;;;;5014208;28;20521;-71
2022/06/06 04:50:46;;;;;;;8.02;4.35;;;;;;;;;;5031583;28;20052;-71
2022/06/06 04:53:16;;;;;;;8.10;3.85;;;;;;;;;;4997920;28;20044;-71
2022/06/06 04:55:42;;;;;;;3.75;3.40;;;;;;;;;;5013964;28;20041;-71
2022/06/06 04:58:08;;;;;;;3.90;3.40;;;;;;;;;;5014005;28;20095;-71
2022/06/06 05:00:34;;;;;;;4.15;3.53;;;;;;;;;;5031715;28;20060;-70
2022/06/06 05:03:00;;;;;;;3.55;3.30;;;;;;;;;;5031467;28;20065;-70
2022/06/06 05:05:29;;;;;;;3.83;3.20;;;;;;;;;;5030788;28;20042;-70
2022/06/06 05:07:55;;;;;;;5.60;3.55;;;;;;;;;;5030743;28;20053;-70
2022/06/06 05:10:24;;;;;;;4.72;3.40;;;;;;;;;;5031183;28;20429;-70
2022/06/06 05:12:54;;;;;;;8.65;3.65;;;;;;;;;;5031137;28;20440;-72
2022/06/06 05:15:41;;;;;;;8.07;3.83;;;;;;;;;;5031141;28;20096;-71
2022/06/06 05:18:26;;;;;;;4.32;3.30;;;;;;;;;;5031308;28;20068;-71
2022/06/06 05:21:13;;;;;;;5.57;3.65;;;;;;;;;;5031103;28;20045;-71
2022/06/06 05:24:11;;;;;;;3.63;3.33;;;;;;;;;;5024046;28;20041;-71
2022/06/06 05:26:55;;;;;;;6.55;3.60;;;;;;;;;;5008026;28;20528;-71
2022/06/06 05:29:57;;;;;;;4.15;3.30;;;;;;;;;;5031102;28;20417;-71
2022/06/06 05:32:34;;;;;;;4.88;3.50;;;;;;;;;;4989187;28;20077;-72
2022/06/06 05:35:12;;;;;;;3.45;3.20;;;;;;;;;;5025549;28;20464;-71
2022/06/06 05:37:38;;;;;;;4.95;3.33;;;;;;;;;;5030694;28;20263;-71
2022/06/06 05:40:19;;;;;;;3.10;2.95;;;;;;;;;;5030777;28;20043;-71
2022/06/06 05:42:55;;;;;;;3.25;2.90;;;;;;;;;;5029452;28;20417;-70
2022/06/06 05:45:39;;;;;;;3.13;2.92;;;;;;;;;;5030612;28;20474;-72
2022/06/06 05:48:07;;;;;;;3.63;3.00;;;;;;;;;;5030764;28;20068;-71
2022/06/06 05:50:45;;;;;;;4.40;3.03;;;;;;;;;;5012602;28;20042;-72
2022/06/06 05:53:30;;;;;;;6.97;3.20;;;;;;;;;;5030727;28;20501;-71
2022/06/06 05:55:58;;;;;;;2.65;2.47;;;;;;;;;;5030572;28;20099;-71
2022/06/06 05:58:40;;;;;;;6.35;3.45;;;;;;;;;;5013026;28;20428;-73
2022/06/06 06:01:29;;;;;;;4.28;3.20;;;;;;;;;;5012805;28;20060;-72
2022/06/06 06:03:55;;;;;;;4.63;2.97;;;;;;;;;;5007034;28;20057;-72
2022/06/06 06:06:26;;;;;;;4.40;3.53;;;;;;;;;;5012505;28;20120;-71
2022/06/06 06:08:52;;;;;;;3.20;3.00;;;;;;;;;;5012849;28;20429;-71
2022/06/06 06:11:37;;;;;;;2.83;2.70;;;;;;;;;;5030372;28;20124;-71
2022/06/06 06:14:03;;;;;;;6.57;3.10;;;;;;;;;;5030282;28;20460;-71
2022/06/06 06:16:30;;;;;;;5.15;2.90;;;;;;;;;;5030059;28;20426;-72
2022/06/06 06:19:01;;;;;;;3.30;3.03;;;;;;;;;;5012332;28;20045;-71
2022/06/06 06:21:28;;;;;;;3.28;2.97;;;;;;;;;;4996173;28;20056;-71
2022/06/06 06:23:58;;;;;;;4.38;3.25;;;;;;;;;;5012349;28;20124;-71
2022/06/06 06:26:24;;;;;;;3.83;3.28;;;;;;;;;;5028722;28;20715;-71
2022/06/06 06:28:50;;;;;;;5.57;3.67;;;;;;;;;;5012407;28;20308;-72
2022/06/06 06:31:29;;;;;;;4.32;3.60;;;;;;;;;;5029868;28;20049;-71
2022/06/06 06:34:14;;;;;;;5.22;3.53;;;;;;;;;;5029896;28;20457;-70
2022/06/06 06:36:43;;;;;;;4.03;3.40;;;;;;;;;;5029605;28;20532;-71
2022/06/06 06:39:13;;;;;;;4.18;3.25;;;;;;;;;;5012033;28;20057;-70
2022/06/06 06:42:01;;;;;;;3.20;3.00;;;;;;;;;;5029560;28;20132;-70
2022/06/06 06:44:39;;;;;;;3.85;3.40;;;;;;;;;;4996139;28;20053;-70
2022/06/06 06:47:08;;;;;;;9.27;2.90;;;;;;;;;;5012241;28;20424;-69
2022/06/06 06:49:35;;;;;;;4.93;3.80;;;;;;;;;;5029531;28;20421;-71
2022/06/06 06:52:01;;;;;;;6.72;3.58;;;;;;;;;;5028493;28;20045;-71
2022/06/06 06:54:47;;;;;;;5.82;3.70;;;;;;;;;;5029634;28;20048;-70
2022/06/06 06:57:25;;;;;;;5.93;3.42;;;;;;;;;;5011408;28;20041;-70
2022/06/06 07:00:17;;;;;;;3.88;3.28;;;;;;;;;;5029370;28;20060;-70
2022/06/06 07:08:36;;;;;;;6.25;3.20;;;;;;;;;;5029716;28;20247;-71
2022/06/06 07:11:01;;;;;;;5.60;3.40;;;;;;;;;;5029673;28;20054;-71
2022/06/06 07:13:34;;;;;;;4.22;3.40;;;;;;;;;;5012138;28;20411;-71
2022/06/06 07:16:06;;;;;;;3.45;3.25;;;;;;;;;;5012193;28;20509;-70
2022/06/06 07:18:32;;;;;;;4.50;3.83;;;;;;;;;;5029415;28;20424;-70
2022/06/06 07:20:58;;;;;;;4.20;3.80;;;;;;;;;;5029038;28;20124;-71
2022/06/06 07:23:24;;;;;;;8.50;3.40;;;;;;;;;;5029364;28;20049;-70
2022/06/06 07:25:50;;;;;;;5.32;3.72;;;;;;;;;;5011539;28;20435;-71
2022/06/06 07:28:18;;;;;;;5.63;3.45;;;;;;;;;;5029326;28;20045;-71
2022/06/06 07:30:50;;;;;;;4.43;3.25;;;;;;;;;;5031957;28;20131;-72
2022/06/06 07:33:22;;;;;;;5.63;3.22;;;;;;;;;;5032287;28;20037;-71
2022/06/06 07:35:48;;;;;;;3.80;3.50;;;;;;;;;;5033037;28;20132;-72
2022/06/06 07:38:33;;;;;;;3.28;2.95;;;;;;;;;;5033188;28;20061;-71
2022/06/06 07:40:59;;;;;;;4.05;3.03;;;;;;;;;;5033031;28;20116;-71
2022/06/06 07:43:51;;;;;;;7.53;2.95;;;;;;;;;;5033154;28;20129;-72
2022/06/06 07:46:38;;;;;;;4.78;3.08;;;;;;;;;;5013472;28;20041;-71
2022/06/06 07:49:05;;;;;;;4.70;3.20;;;;;;;;;;5033091;28;20041;-71
2022/06/06 07:51:45;;;;;;;4.80;3.20;;;;;;;;;;5033011;28;20038;-71
2022/06/06 07:54:14;;;;;;;2.85;2.65;;;;;;;;;;5032926;28;20049;-71
2022/06/06 07:56:51;;;;;;;3.20;3.00;;;;;;;;;;5032537;28;20058;-69
2022/06/06 07:59:16;;;;;;;3.30;3.10;;;;;;;;;;5032914;28;20525;-70
2022/06/06 08:01:52;;;;;;;3.78;3.42;;;;;;;;;;5032506;28;20581;-71
2022/06/06 08:04:33;;;;;;;3.70;3.40;;;;;;;;;;5028157;28;20060;-71
2022/06/06 08:06:59;;;;;;;5.00;3.35;;;;;;;;;;5012648;28;20041;-70
2022/06/06 08:09:43;;;;;;;5.90;3.30;;;;;;;;;;5012724;28;20124;-72
2022/06/06 08:12:09;;;;;;;4.50;3.25;;;;;;;;;;5011450;28;20124;-71
2022/06/06 08:14:40;;;;;;;4.95;3.13;;;;;;;;;;5011517;28;20077;-71
2022/06/06 08:17:10;;;;;;;3.17;2.97;;;;;;;;;;5012614;28;20049;-70
2022/06/06 08:19:45;;;;;;;4.32;3.33;;;;;;;;;;5011384;28;20050;-71
2022/06/06 08:22:11;;;;;;;3.40;3.20;;;;;;;;;;5011110;28;20471;-70
2022/06/06 08:24:38;;;;;;;3.58;2.90;;;;;;;;;;5012578;28;20044;-70
2022/06/06 08:27:04;;;;;;;2.83;2.70;;;;;;;;;;5012549;28;20551;-71
2022/06/06 08:29:30;;;;;;;9.80;2.70;;;;;;;;;;5011376;28;20055;-71
2022/06/06 08:31:56;;;;;;;3.20;3.00;;;;;;;;;;5011032;28;20038;-70
2022/06/06 08:34:22;;;;;;;2.92;2.83;;;;;;;;;;5011126;28;20088;-70
2022/06/06 08:36:48;;;;;;;4.75;3.00;;;;;;;;;;5011932;28;20054;-71
2022/06/06 08:39:21;;;;;;;3.30;3.10;;;;;;;;;;5012241;28;20061;-69
2022/06/06 08:41:55;;;;;;;3.25;3.05;;;;;;;;;;5026718;28;20042;-71
2022/06/06 08:44:21;;;;;;;4.15;3.55;;;;;;;;;;5010710;28;20042;-70
2022/06/06 08:46:47;;;;;;;6.22;3.47;;;;;;;;;;5011798;28;20103;-71
2022/06/06 08:52:11;;;;;;;3.17;3.00;;;;;;;;;;5011940;28;20052;-71
2022/06/06 08:54:37;;;;;;;4.05;3.30;;;;;;;;;;5011944;28;20080;-70
2022/06/06 08:57:03;;;;;;;3.78;3.10;;;;;;;;;;5010220;28;20046;-71
2022/06/06 08:59:37;;;;;;;6.95;3.70;;;;;;;;;;5011581;28;20069;-71
2022/06/06 09:02:22;;;;;;;4.03;3.17;;;;;;;;;;5010059;28;20080;-71
2022/06/06 09:04:58;;;;;;;2.92;2.70;;;;;;;;;;5031546;28;20049;-71
2022/06/06 09:07:34;;;;;;;2.80;2.65;;;;;;;;;;5031262;28;20456;-71
2022/06/06 09:10:00;;;;;;;3.20;2.90;;;;;;;;;;5031164;28;20045;-71
2022/06/06 09:12:26;;;;;;;4.53;2.42;;;;;;;;;;5030959;28;20052;-71
2022/06/06 09:14:55;;;;;;;3.33;3.13;;;;;;;;;;5030958;28;20505;-72
2022/06/06 09:17:42;;;;;;;2.00;1.90;;;;;;;;;;5031033;28;20057;-71
2022/06/06 09:20:08;;;;;;;3.33;2.83;;;;;;;;;;5031121;28;20096;-71
2022/06/06 09:22:37;;;;;;;3.80;3.17;;;;;;;;;;5031057;28;20034;-71
2022/06/06 09:25:03;;;;;;;2.47;2.38;;;;;;;;;;5030741;28;20488;-71
2022/06/06 09:27:48;;;;;;;3.20;2.80;;;;;;;;;;5013037;28;20395;-71
2022/06/06 09:30:23;;;;;;;8.45;2.85;;;;;;;;;;5031117;28;20037;-70
2022/06/06 09:33:08;;;;;;;3.63;2.80;;;;;;;;;;5031023;28;20103;-72
2022/06/06 09:36:10;;;;;;;3.40;3.10;;;;;;;;;;5029757;28;20141;-71
2022/06/06 09:38:45;;;;;;;3.17;2.83;;;;;;;;;;4973196;28;20604;-72
2022/06/06 09:41:29;;;;;;;3.83;3.13;;;;;;;;;;5025077;28;20041;-71
2022/06/06 09:43:56;;;;;;;5.78;2.70;;;;;;;;;;5030903;28;20632;-72
2022/06/06 09:46:25;;;;;;;4.90;3.30;;;;;;;;;;5030758;28;20104;-72
2022/06/06 09:49:17;;;;;;;6.10;3.08;;;;;;;;;;5030608;28;20081;-71
2022/06/06 09:51:43;;;;;;;4.63;3.13;;;;;;;;;;5014350;28;20068;-70
2022/06/06 10:00:08;;;;;;;5.45;3.50;;;;;;;;;;5012421;28;20049;-72
2022/06/06 10:03:00;;;;;;;3.38;3.00;;;;;;;;;;5030088;28;20049;-71
2022/06/06 10:05:30;;;;;;;3.30;3.00;;;;;;;;;;5028342;28;20049;-72
2022/06/06 10:07:55;;;;;;;3.28;2.88;;;;;;;;;;5012395;28;20072;-72
2022/06/06 10:10:27;;;;;;;10.73;3.13;;;;;;;;;;5030611;28;20127;-72
2022/06/06 10:13:09;;;;;;;3.33;3.00;;;;;;;;;;5030176;28;20046;-71
2022/06/06 10:15:35;;;;;;;3.95;3.03;;;;;;;;;;5012802;28;20049;-72
2022/06/06 10:18:25;;;;;;;8.57;2.80;;;;;;;;;;5028731;28;20057;-71
2022/06/06 10:21:10;;;;;;;5.25;2.90;;;;;;;;;;5012223;28;20076;-71
2022/06/06 10:23:39;;;;;;;2.95;2.72;;;;;;;;;;5030010;28;20072;-72
2022/06/06 10:26:11;;;;;;;3.05;2.38;;;;;;;;;;5029623;28;20583;-71
2022/06/06 10:28:55;;;;;;;5.45;3.05;;;;;;;;;;5030090;28;20044;-71
2022/06/06 10:31:36;;;;;;;6.43;3.55;;;;;;;;;;5029906;28;20045;-72
2022/06/06 10:34:08;;;;;;;3.90;2.80;;;;;;;;;;5029850;28;20041;-72
2022/06/06 10:36:40;;;;;;;5.45;2.90;;;;;;;;;;5029664;28;20049;-72
2022/06/06 10:39:09;;;;;;;2.90;2.70;;;;;;;;;;5029649;28;20042;-72
2022/06/06 10:41:42;;;;;;;3.72;2.70;;;;;;;;;;5029815;28;20095;-71
2022/06/06 10:44:15;;;;;;;3.03;2.80;;;;;;;;;;5012091;28;20068;-71
2022/06/06 10:46:41;;;;;;;2.25;2.13;;;;;;;;;;5029773;28;20060;-71
2022/06/06 10:49:21;;;;;;;3.15;2.72;;;;;;;;;;5029546;28;20045;-71
2022/06/06 10:52:06;;;;;;;4.88;2.28;;;;;;;;;;5011700;28;20064;-72
2022/06/06 10:54:50;;;;;;;2.92;2.70;;;;;;;;;;5029932;28;20030;-72
2022/06/06 10:57:34;;;;;;;3.83;2.58;;;;;;;;;;5012124;28;20052;-71
2022/06/06 11:00:19;;;;;;;5.70;2.65;;;;;;;;;;5029325;28;20056;-71
2022/06/06 11:03:04;;;;;;;4.97;2.40;;;;;;;;;;5029082;28;20061;-72
2022/06/06 11:05:48;;;;;;;3.70;2.47;;;;;;;;;;5029459;28;20120;-72
2022/06/06 11:08:33;;;;;;;4.60;2.90;;;;;;;;;;5029486;28;20068;-73
2022/06/06 11:11:18;;;;;;;4.55;2.78;;;;;;;;;;5027902;28;20047;-70
2022/06/06 11:13:53;;;;;;;8.27;2.90;;;;;;;;;;5029355;28;20042;-71
2022/06/06 11:16:22;;;;;;;5.97;3.03;;;;;;;;;;5029488;28;20037;-71
2022/06/06 11:19:06;;;;;;;2.50;2.40;;;;;;;;;;5028217;28;20049;-72
2022/06/06 11:21:52;;;;;;;5.07;2.75;;;;;;;;;;5029274;28;20324;-71
2022/06/06 11:24:21;;;;;;;4.13;2.65;;;;;;;;;;5012050;28;20041;-72
2022/06/06 11:26:53;;;;;;;4.57;2.95;;;;;;;;;;5029847;28;20037;-70
2022/06/06 11:29:32;;;;;;;5.43;3.03;;;;;;;;;;5030591;28;20451;-71
2022/06/06 11:32:07;;;;;;;3.67;2.80;;;;;;;;;;5011876;28;20072;-70
2022/06/06 11:34:49;;;;;;;3.20;3.00;;;;;;;;;;5029424;28;20124;-72
2022/06/06 11:37:34;;;;;;;4.07;2.75;;;;;;;;;;5029263;28;20511;-71
2022/06/06 11:40:12;;;;;;;3.15;2.95;;;;;;;;;;5028969;28;20256;-71
2022/06/06 11:42:37;;;;;;;2.85;2.65;;;;;;;;;;5011361;28;20119;-72
2022/06/06 11:45:16;;;;;;;5.60;2.78;;;;;;;;;;5029059;28;20033;-72
2022/06/06 11:47:42;;;;;;;4.20;2.30;;;;;;;;;;5028982;28;20489;-71
2022/06/06 11:50:23;;;;;;;4.38;2.40;;;;;;;;;;5011210;28;20069;-72
2022/06/06 11:52:52;;;;;;;3.22;2.70;;;;;;;;;;5029389;28;20536;-72
2022/06/06 11:55:18;;;;;;;6.72;2.75;;;;;;;;;;5029089;28;20038;-70
2022/06/06 11:57:53;;;;;;;2.85;2.55;;;;;;;;;;5027718;28;20119;-71
2022/06/06 12:00:19;;;;;;;9.02;2.88;;;;;;;;;;5029014;28;20460;-71
